createdAt,value
2022-11-12T00:00:42.546Z,100.00
2022-11-12T00:03:09.640Z,100.00
2022-11-12T00:05:36.928Z,100.00
2022-11-12T00:08:04.341Z,100.00
2022-11-12T00:10:32.281Z,100.00
2022-11-12T00:12:59.368Z,100.00
2022-11-12T00:15:26.779Z,100.00
2022-11-12T00:17:53.668Z,100.00
2022-11-12T00:20:21.068Z,100.00
2022-11-12T00:22:47.827Z,100.00
2022-11-12T00:25:14.465Z,100.00
2022-11-12T00:27:41.044Z,100.00
2022-11-12T00:30:07.999Z,100.00
2022-11-12T00:32:37.841Z,100.00
2022-11-12T00:35:06.839Z,100.00
2022-11-12T00:37:35.364Z,100.00
2022-11-12T00:40:02.063Z,100.00
2022-11-12T00:42:28.627Z,100.00
2022-11-12T00:44:55.190Z,100.00
2022-11-12T00:47:21.922Z,100.00
2022-11-12T00:49:48.617Z,100.00
2022-11-12T00:52:15.187Z,100.00
2022-11-12T00:54:41.746Z,100.00
2022-11-12T00:57:08.346Z,100.00
2022-11-12T00:59:34.875Z,100.00
2022-11-12T01:02:01.417Z,100.00
2022-11-12T01:04:28.051Z,100.00
2022-11-12T01:06:54.674Z,100.00
2022-11-12T01:09:21.324Z,100.00
2022-11-12T01:11:48.964Z,100.00
2022-11-12T01:14:15.645Z,100.00
2022-11-12T01:16:43.006Z,100.00
2022-11-12T01:19:12.162Z,100.00
2022-11-12T01:21:41.805Z,100.00
2022-11-12T01:24:09.849Z,100.00
2022-11-12T01:26:37.146Z,100.00
2022-11-12T01:29:04.724Z,100.00
2022-11-12T01:31:34.185Z,100.00
2022-11-12T01:34:06.938Z,100.00
2022-11-12T01:36:38.802Z,100.00
2022-11-12T01:39:07.711Z,100.00
2022-11-12T01:41:36.877Z,100.00
2022-11-12T01:44:15.543Z,100.00
2022-11-12T01:47:06.541Z,100.00
2022-11-12T01:49:56.853Z,100.00
2022-11-12T01:52:33.688Z,100.00
2022-11-12T01:55:07.881Z,100.00
2022-11-12T01:57:47.634Z,100.00
2022-11-12T02:00:15.597Z,100.00
2022-11-12T02:02:46.374Z,100.00
2022-11-12T02:05:14.158Z,100.00
2022-11-12T02:07:43.283Z,100.00
2022-11-12T02:10:10.295Z,100.00
2022-11-12T02:12:55.658Z,100.00
2022-11-12T02:15:22.439Z,100.00
2022-11-12T02:17:49.033Z,100.00
2022-11-12T02:20:15.777Z,100.00
2022-11-12T02:22:42.428Z,100.00
2022-11-12T02:25:18.814Z,100.00
2022-11-12T02:27:45.951Z,100.00
2022-11-12T02:30:12.881Z,100.00
2022-11-12T02:32:39.457Z,100.00
2022-11-12T02:35:06.574Z,100.00
2022-11-12T02:37:33.138Z,100.00
2022-11-12T02:40:00.104Z,100.00
2022-11-12T02:42:26.797Z,100.00
2022-11-12T02:44:53.563Z,100.00
2022-11-12T02:47:20.154Z,100.00
2022-11-12T02:49:46.693Z,100.00
2022-11-12T02:52:13.308Z,100.00
2022-11-12T02:54:40.396Z,100.00
2022-11-12T02:57:06.999Z,100.00
2022-11-12T02:59:33.680Z,100.00
2022-11-12T03:02:00.469Z,100.00
2022-11-12T03:04:27.022Z,100.00
2022-11-12T03:06:53.674Z,100.00
2022-11-12T03:09:20.256Z,100.00
2022-11-12T03:11:46.853Z,100.00
2022-11-12T03:14:13.475Z,100.00
2022-11-12T03:16:40.063Z,100.00
2022-11-12T03:19:06.874Z,100.00
2022-11-12T03:21:33.582Z,100.00
2022-11-12T03:24:01.610Z,100.00
2022-11-12T03:26:33.009Z,100.00
2022-11-12T03:29:01.180Z,100.00
2022-11-12T03:31:27.875Z,100.00
2022-11-12T03:33:54.484Z,100.00
2022-11-12T03:36:21.096Z,100.00
2022-11-12T03:38:47.686Z,100.00
2022-11-12T03:41:14.288Z,100.00
2022-11-12T03:43:40.858Z,100.00
2022-11-12T03:46:07.425Z,100.00
2022-11-12T03:48:34.039Z,100.00
2022-11-12T03:51:00.886Z,100.00
2022-11-12T03:53:27.449Z,100.00
2022-11-12T03:55:54.127Z,100.00
2022-11-12T03:58:20.735Z,100.00
2022-11-12T04:00:47.405Z,100.00
2022-11-12T04:03:14.071Z,100.00
2022-11-12T04:05:59.178Z,100.00
2022-11-12T04:08:37.552Z,100.00
2022-11-12T04:11:12.948Z,100.00
2022-11-12T04:13:42.126Z,100.00
2022-11-12T04:16:31.701Z,100.00
2022-11-12T04:19:18.759Z,100.00
2022-11-12T04:21:50.815Z,100.00
2022-11-12T04:24:44.899Z,100.00
2022-11-12T04:27:16.920Z,100.00
2022-11-12T04:30:03.707Z,100.00
2022-11-12T04:32:32.733Z,100.00
2022-11-12T04:34:59.584Z,100.00
2022-11-12T04:37:28.274Z,100.00
2022-11-12T04:39:54.916Z,100.00
2022-11-12T04:42:39.987Z,100.00
2022-11-12T04:45:09.900Z,100.00
2022-11-12T04:47:39.982Z,100.00
2022-11-12T04:50:13.757Z,100.00
2022-11-12T04:52:40.369Z,100.00
2022-11-12T04:55:07.828Z,100.00
2022-11-12T04:57:34.650Z,100.00
2022-11-12T05:00:01.311Z,100.00
2022-11-12T05:02:27.892Z,100.00
2022-11-12T05:04:54.450Z,100.00
2022-11-12T05:07:21.286Z,100.00
2022-11-12T05:09:47.910Z,100.00
2022-11-12T05:12:14.861Z,100.00
2022-11-12T05:14:41.453Z,100.00
2022-11-12T05:17:08.040Z,100.00
2022-11-12T05:19:35.259Z,100.00
2022-11-12T05:22:13.925Z,100.00
2022-11-12T05:24:48.827Z,100.00
2022-11-12T05:27:18.938Z,100.00
2022-11-12T05:29:45.636Z,100.00
2022-11-12T05:32:15.374Z,100.00
2022-11-12T05:34:42.522Z,100.00
2022-11-12T05:37:10.683Z,100.00
2022-11-12T05:39:37.782Z,100.00
2022-11-12T05:42:13.869Z,100.00
2022-11-12T05:44:41.349Z,100.00
2022-11-12T05:47:08.043Z,100.00
2022-11-12T05:49:34.617Z,100.00
2022-11-12T05:52:01.219Z,100.00
2022-11-12T05:54:27.921Z,100.00
2022-11-12T05:56:54.538Z,100.00
2022-11-12T05:59:22.222Z,100.00
2022-11-12T06:01:48.854Z,100.00
2022-11-12T06:04:16.509Z,100.00
2022-11-12T06:06:44.069Z,100.00
2022-11-12T06:09:11.089Z,100.00
2022-11-12T06:11:38.017Z,100.00
2022-11-12T06:14:05.412Z,100.00
2022-11-12T06:16:32.784Z,100.00
2022-11-12T06:18:59.508Z,100.00
2022-11-12T06:21:27.868Z,100.00
2022-11-12T06:23:59.961Z,100.00
2022-11-12T06:26:29.050Z,100.00
2022-11-12T06:28:56.657Z,100.00
2022-11-12T06:31:23.780Z,100.00
2022-11-12T06:33:51.109Z,100.00
2022-11-12T06:36:20.205Z,100.00
2022-11-12T06:38:47.323Z,100.00
2022-11-12T06:41:14.698Z,100.00
2022-11-12T06:43:41.949Z,100.00
2022-11-12T06:46:13.255Z,100.00
2022-11-12T06:48:40.696Z,100.00
2022-11-12T06:51:25.846Z,100.00
2022-11-12T06:53:52.590Z,100.00
2022-11-12T06:56:19.153Z,100.00
2022-11-12T06:58:45.776Z,100.00
2022-11-12T07:01:15.577Z,100.00
2022-11-12T07:03:44.032Z,100.00
2022-11-12T07:06:14.857Z,100.00
2022-11-12T07:08:42.192Z,100.00
2022-11-12T07:11:09.460Z,100.00
2022-11-12T07:13:36.950Z,100.00
2022-11-12T07:16:05.874Z,100.00
2022-11-12T07:18:34.395Z,100.00
2022-11-12T07:21:03.404Z,100.00
2022-11-12T07:23:32.657Z,100.00
2022-11-12T07:26:01.867Z,100.00
2022-11-12T07:28:29.519Z,100.00
2022-11-12T07:30:58.045Z,100.00
2022-11-12T07:33:25.230Z,100.00
2022-11-12T07:36:06.138Z,100.00
2022-11-12T07:38:35.047Z,100.00
2022-11-12T07:41:07.542Z,100.00
2022-11-12T07:43:35.939Z,100.00
2022-11-12T07:46:10.312Z,100.00
2022-11-12T07:48:37.675Z,100.00
2022-11-12T07:51:15.286Z,100.00
2022-11-12T07:53:43.086Z,100.00
2022-11-12T07:56:12.490Z,100.00
2022-11-12T07:58:39.600Z,100.00
2022-11-12T08:01:10.226Z,100.00
2022-11-12T08:03:37.366Z,100.00
2022-11-12T08:06:04.546Z,100.00
2022-11-12T08:08:31.143Z,100.00
2022-11-12T08:10:58.716Z,100.00
2022-11-12T08:13:26.867Z,100.00
2022-11-12T08:15:53.488Z,100.00
2022-11-12T08:18:20.040Z,100.00
2022-11-12T08:20:46.674Z,100.00
2022-11-12T08:23:13.318Z,100.00
2022-11-12T08:25:39.916Z,100.00
2022-11-12T08:28:06.631Z,100.00
2022-11-12T08:30:33.250Z,100.00
2022-11-12T08:33:02.491Z,100.00
2022-11-12T08:35:31.607Z,100.00
2022-11-12T08:38:06.648Z,100.00
2022-11-12T08:40:33.438Z,100.00
2022-11-12T08:43:04.832Z,100.00
2022-11-12T08:45:37.236Z,100.00
2022-11-12T08:48:06.550Z,100.00
2022-11-12T08:50:34.560Z,100.00
2022-11-12T08:53:02.929Z,100.00
2022-11-12T08:55:30.751Z,100.00
2022-11-12T08:58:01.964Z,100.00
2022-11-12T09:00:29.998Z,100.00
2022-11-12T09:02:56.959Z,100.00
2022-11-12T09:05:23.510Z,100.00
2022-11-12T09:08:00.464Z,100.00
2022-11-12T09:10:27.332Z,100.00
2022-11-12T09:12:54.121Z,100.00
2022-11-12T09:15:36.979Z,100.00
2022-11-12T09:18:08.246Z,100.00
2022-11-12T09:20:35.586Z,100.00
2022-11-12T09:23:05.331Z,100.00
2022-11-12T09:25:32.026Z,100.00
2022-11-12T09:27:58.623Z,100.00
2022-11-12T09:30:25.267Z,100.00
2022-11-12T09:32:57.354Z,100.00
2022-11-12T09:35:23.909Z,100.00
2022-11-12T09:37:50.530Z,100.00
2022-11-12T09:40:19.273Z,100.00
2022-11-12T09:42:53.388Z,100.00
2022-11-12T09:45:32.693Z,100.00
2022-11-12T09:48:06.261Z,100.00
2022-11-12T09:50:40.235Z,100.00
2022-11-12T09:53:12.954Z,100.00
2022-11-12T09:55:46.845Z,100.00
2022-11-12T09:58:14.899Z,100.00
2022-11-12T10:00:48.033Z,100.00
2022-11-12T10:03:29.728Z,100.00
2022-11-12T10:06:10.064Z,100.00
2022-11-12T10:08:46.632Z,100.00
2022-11-12T10:11:16.240Z,100.00
2022-11-12T10:14:07.633Z,100.00
2022-11-12T10:16:45.019Z,100.00
2022-11-12T10:19:26.050Z,100.00
2022-11-12T10:22:14.249Z,100.00
2022-11-12T10:24:42.124Z,100.00
2022-11-12T10:27:28.621Z,100.00
2022-11-12T10:30:03.543Z,100.00
2022-11-12T10:32:31.320Z,100.00
2022-11-12T10:34:57.849Z,100.00
2022-11-12T10:37:33.973Z,100.00
2022-11-12T10:40:20.488Z,100.00
2022-11-12T10:43:21.049Z,100.00
2022-11-12T10:45:49.575Z,100.00
2022-11-12T10:48:34.493Z,100.00
2022-11-12T10:51:02.798Z,100.00
2022-11-12T10:53:36.805Z,100.00
2022-11-12T10:56:25.874Z,100.00
2022-11-12T10:59:11.214Z,100.00
2022-11-12T11:01:41.700Z,100.00
2022-11-12T11:04:36.191Z,100.00
2022-11-12T11:07:07.168Z,100.00
2022-11-12T11:09:34.459Z,100.00
2022-11-12T11:12:01.286Z,100.00
2022-11-12T11:14:35.667Z,100.00
2022-11-12T11:17:08.686Z,100.00
2022-11-12T11:19:37.546Z,100.00
2022-11-12T11:22:13.019Z,96.18
2022-11-12T11:24:59.757Z,99.08
2022-11-12T11:27:46.802Z,94.75
2022-11-12T11:30:18.467Z,96.29
2022-11-12T11:32:54.129Z,93.85
2022-11-12T11:35:42.389Z,92.03
2022-11-12T11:38:39.119Z,93.93
2022-11-12T11:41:31.722Z,91.02
2022-11-12T11:44:22.150Z,92.38
2022-11-12T11:47:12.750Z,89.47
2022-11-12T11:49:54.589Z,91.46
2022-11-12T11:52:39.525Z,92.41
2022-11-12T11:55:36.851Z,98.63
2022-11-12T11:58:16.769Z,98.44
2022-11-12T12:00:55.543Z,95.53
2022-11-12T12:03:31.721Z,95.86
2022-11-12T12:06:17.349Z,96.57
2022-11-12T12:08:52.997Z,98.71
2022-11-12T12:11:34.721Z,98.99
2022-11-12T12:14:32.309Z,98.06
2022-11-12T12:17:36.788Z,99.58
2022-11-12T12:20:20.122Z,97.42
2022-11-12T12:23:13.764Z,98.75
2022-11-12T12:25:42.905Z,100.00
2022-11-12T12:28:27.875Z,100.00
2022-11-12T12:31:01.234Z,98.31
2022-11-12T12:33:35.697Z,99.82
2022-11-12T12:36:17.023Z,100.00
2022-11-12T12:38:46.550Z,100.00
2022-11-12T12:41:39.238Z,100.00
2022-11-12T12:44:09.210Z,100.00
2022-11-12T12:46:57.688Z,100.00
2022-11-12T12:49:34.240Z,100.00
2022-11-12T12:52:00.939Z,99.46
2022-11-12T12:55:00.021Z,98.23
2022-11-12T12:57:30.160Z,99.64
2022-11-12T13:00:39.775Z,97.95
2022-11-12T13:03:07.005Z,98.15
2022-11-12T13:05:36.672Z,98.76
2022-11-12T13:08:08.879Z,99.24
2022-11-12T13:10:41.714Z,99.03
2022-11-12T13:13:17.695Z,97.85
2022-11-12T13:15:48.713Z,99.41
2022-11-12T13:18:37.226Z,97.98
2022-11-12T13:21:18.667Z,96.43
2022-11-12T13:24:11.111Z,95.37
2022-11-12T13:26:46.411Z,97.22
2022-11-12T13:29:28.041Z,97.57
2022-11-12T13:32:29.455Z,96.87
2022-11-12T13:35:14.907Z,97.24
2022-11-12T13:37:44.907Z,96.51
2022-11-12T13:40:36.167Z,97.71
2022-11-12T13:43:21.341Z,88.98
2022-11-12T13:46:03.813Z,87.10
2022-11-12T13:48:41.547Z,90.39
2022-11-12T13:51:20.095Z,90.04
2022-11-12T13:53:46.925Z,89.86
2022-11-12T13:56:29.188Z,89.85
2022-11-12T13:58:56.232Z,89.74
2022-11-12T14:01:25.075Z,91.03
2022-11-12T14:03:53.195Z,89.83
2022-11-12T14:06:23.829Z,87.53
2022-11-12T14:08:56.972Z,87.30
2022-11-12T14:11:29.525Z,87.12
2022-11-12T14:14:26.951Z,85.84
2022-11-12T14:16:56.405Z,86.24
2022-11-12T14:19:45.422Z,85.79
2022-11-12T14:22:18.802Z,88.45
2022-11-12T14:24:48.233Z,88.13
2022-11-12T14:27:31.345Z,89.74
2022-11-12T14:30:18.668Z,90.04
2022-11-12T14:32:47.619Z,90.33
2022-11-12T14:35:19.662Z,90.31
2022-11-12T14:38:11.404Z,91.24
2022-11-12T14:40:44.467Z,90.16
2022-11-12T14:43:24.830Z,89.79
2022-11-12T14:45:56.810Z,91.61
2022-11-12T14:48:23.711Z,93.97
2022-11-12T14:50:58.068Z,94.81
2022-11-12T14:53:35.258Z,96.11
2022-11-12T14:56:04.487Z,96.26
2022-11-12T14:58:33.128Z,96.34
2022-11-12T15:01:47.738Z,92.67
2022-11-12T15:04:10.973Z,92.06
2022-11-12T15:06:37.966Z,90.08
2022-11-12T15:09:05.797Z,86.12
2022-11-12T15:11:36.813Z,85.79
2022-11-12T15:14:04.963Z,86.58
2022-11-12T15:16:34.564Z,86.22
2022-11-12T15:19:18.885Z,86.19
2022-11-12T15:21:48.244Z,88.13
2022-11-12T15:24:32.798Z,88.48
2022-11-12T15:27:01.626Z,89.71
2022-11-12T15:29:35.143Z,89.98
2022-11-12T15:32:13.487Z,87.88
2022-11-12T15:34:40.606Z,90.16
2022-11-12T15:37:12.050Z,91.68
2022-11-12T15:39:47.950Z,94.76
2022-11-12T15:42:33.108Z,95.04
2022-11-12T15:45:02.483Z,93.96
2022-11-12T15:47:29.516Z,89.98
2022-11-12T15:49:58.853Z,88.88
2022-11-12T15:52:26.025Z,88.13
2022-11-12T15:54:52.682Z,89.33
2022-11-12T15:57:27.379Z,91.21
2022-11-12T16:00:07.774Z,91.07
2022-11-12T16:02:35.430Z,91.85
2022-11-12T16:05:02.086Z,91.38
2022-11-12T16:07:28.650Z,90.62
2022-11-12T16:09:55.367Z,91.63
2022-11-12T16:12:21.970Z,90.91
2022-11-12T16:14:48.581Z,92.15
2022-11-12T16:17:17.619Z,94.47
2022-11-12T16:19:44.192Z,98.03
2022-11-12T16:22:13.693Z,100.00
2022-11-12T16:24:41.473Z,100.00
2022-11-12T16:27:13.762Z,100.00
2022-11-12T16:29:40.756Z,100.00
2022-11-12T16:32:11.815Z,100.00
2022-11-12T16:34:38.362Z,100.00
2022-11-12T16:37:05.076Z,100.00
2022-11-12T16:39:32.659Z,100.00
2022-11-12T16:41:59.398Z,100.00
2022-11-12T16:44:25.990Z,100.00
2022-11-12T16:46:52.622Z,100.00
2022-11-12T16:49:21.249Z,100.00
2022-11-12T16:51:48.970Z,100.00
2022-11-12T16:54:16.706Z,100.00
2022-11-12T16:56:43.251Z,100.00
2022-11-12T16:59:14.301Z,100.00
2022-11-12T17:01:40.975Z,100.00
2022-11-12T17:04:07.545Z,100.00
2022-11-12T17:06:41.322Z,100.00
2022-11-12T17:09:10.469Z,100.00
2022-11-12T17:11:37.268Z,100.00
2022-11-12T17:14:05.927Z,100.00
2022-11-12T17:16:32.512Z,100.00
2022-11-12T17:19:01.680Z,100.00
2022-11-12T17:21:28.527Z,100.00
2022-11-12T17:23:57.334Z,100.00
2022-11-12T17:26:24.439Z,100.00
2022-11-12T17:28:57.569Z,100.00
2022-11-12T17:31:27.810Z,100.00
2022-11-12T17:33:54.431Z,100.00
2022-11-12T17:36:25.868Z,100.00
2022-11-12T17:39:00.053Z,100.00
2022-11-12T17:41:30.801Z,100.00
2022-11-12T17:43:59.358Z,100.00
2022-11-12T17:46:26.833Z,100.00
2022-11-12T17:48:55.460Z,100.00
2022-11-12T17:51:25.004Z,100.00
2022-11-12T17:53:51.966Z,100.00
2022-11-12T17:56:21.117Z,100.00
2022-11-12T17:58:49.605Z,100.00
2022-11-12T18:01:19.670Z,100.00
2022-11-12T18:03:50.144Z,100.00
2022-11-12T18:06:19.585Z,100.00
2022-11-12T18:08:46.642Z,100.00
2022-11-12T18:11:15.152Z,100.00
2022-11-12T18:13:41.798Z,100.00
2022-11-12T18:16:21.330Z,100.00
2022-11-12T18:18:48.604Z,100.00
2022-11-12T18:21:16.385Z,100.00
2022-11-12T18:23:44.782Z,100.00
2022-11-12T18:26:18.209Z,100.00
2022-11-12T18:28:50.655Z,100.00
2022-11-12T18:31:17.449Z,100.00
2022-11-12T18:33:44.129Z,100.00
2022-11-12T18:36:12.932Z,100.00
2022-11-12T18:38:39.481Z,100.00
2022-11-12T18:41:09.758Z,100.00
2022-11-12T18:43:36.934Z,100.00
2022-11-12T18:46:04.316Z,100.00
2022-11-12T18:48:33.125Z,100.00
2022-11-12T18:51:07.277Z,100.00
2022-11-12T18:53:34.499Z,100.00
2022-11-12T18:56:04.948Z,100.00
2022-11-12T18:58:35.083Z,100.00
2022-11-12T19:01:07.433Z,100.00
2022-11-12T19:03:34.819Z,100.00
2022-11-12T19:06:02.742Z,100.00
2022-11-12T19:08:29.366Z,100.00
2022-11-12T19:11:03.660Z,100.00
2022-11-12T19:13:34.009Z,100.00
2022-11-12T19:16:20.602Z,100.00
2022-11-12T19:18:47.178Z,100.00
2022-11-12T19:21:22.745Z,100.00
2022-11-12T19:23:53.776Z,100.00
2022-11-12T19:26:22.397Z,100.00
2022-11-12T19:28:48.973Z,100.00
2022-11-12T19:31:24.391Z,100.00
2022-11-12T19:33:51.409Z,100.00
2022-11-12T19:36:20.820Z,100.00
2022-11-12T19:38:47.602Z,100.00
2022-11-12T19:41:19.459Z,100.00
2022-11-12T19:43:47.319Z,100.00
2022-11-12T19:46:15.359Z,100.00
2022-11-12T19:48:42.787Z,100.00
2022-11-12T19:51:11.854Z,100.00
2022-11-12T19:53:41.825Z,100.00
2022-11-12T19:56:08.781Z,100.00
2022-11-12T19:58:35.378Z,100.00
2022-11-12T20:01:10.840Z,100.00
2022-11-12T20:03:38.099Z,100.00
2022-11-12T20:06:16.072Z,100.00
2022-11-12T20:08:42.883Z,100.00
2022-11-12T20:11:10.270Z,100.00
2022-11-12T20:13:37.053Z,100.00
2022-11-12T20:16:08.657Z,100.00
2022-11-12T20:18:35.371Z,100.00
2022-11-12T20:21:05.013Z,100.00
2022-11-12T20:23:33.893Z,100.00
2022-11-12T20:26:09.040Z,100.00
2022-11-12T20:28:37.030Z,100.00
2022-11-12T20:31:10.504Z,100.00
2022-11-12T20:33:41.995Z,100.00
2022-11-12T20:36:13.194Z,100.00
2022-11-12T20:38:42.177Z,100.00
2022-11-12T20:41:14.081Z,100.00
2022-11-12T20:43:40.683Z,100.00
2022-11-12T20:46:07.426Z,100.00
2022-11-12T20:48:37.743Z,100.00
2022-11-12T20:51:25.777Z,100.00
2022-11-12T20:53:59.874Z,100.00
2022-11-12T20:56:29.598Z,100.00
2022-11-12T20:58:56.642Z,100.00
2022-11-12T21:01:24.717Z,100.00
2022-11-12T21:03:51.596Z,100.00
2022-11-12T21:06:20.197Z,100.00
2022-11-12T21:08:47.191Z,100.00
2022-11-12T21:11:16.925Z,100.00
2022-11-12T21:13:43.907Z,100.00
2022-11-12T21:16:11.747Z,100.00
2022-11-12T21:18:39.083Z,100.00
2022-11-12T21:21:11.159Z,100.00
2022-11-12T21:23:40.121Z,100.00
2022-11-12T21:26:13.329Z,100.00
2022-11-12T21:28:43.536Z,100.00
2022-11-12T21:31:24.521Z,100.00
2022-11-12T21:33:52.461Z,100.00
2022-11-12T21:36:23.105Z,100.00
2022-11-12T21:38:50.883Z,100.00
2022-11-12T21:41:19.931Z,100.00
2022-11-12T21:43:47.339Z,100.00
2022-11-12T21:46:32.130Z,100.00
2022-11-12T21:48:58.871Z,100.00
2022-11-12T21:51:28.082Z,100.00
2022-11-12T21:54:00.950Z,100.00
2022-11-12T21:56:27.941Z,100.00
2022-11-12T21:59:00.363Z,100.00
2022-11-12T22:01:30.014Z,100.00
2022-11-12T22:03:58.037Z,100.00
2022-11-12T22:06:27.259Z,100.00
2022-11-12T22:08:55.337Z,100.00
2022-11-12T22:11:22.561Z,100.00
2022-11-12T22:13:50.039Z,100.00
2022-11-12T22:16:23.755Z,100.00
2022-11-12T22:18:52.788Z,100.00
2022-11-12T22:21:22.356Z,100.00
2022-11-12T22:23:49.166Z,100.00
2022-11-12T22:26:21.215Z,100.00
2022-11-12T22:28:48.961Z,100.00
2022-11-12T22:31:18.375Z,100.00
2022-11-12T22:33:45.267Z,100.00
2022-11-12T22:36:20.934Z,100.00
2022-11-12T22:38:49.340Z,100.00
2022-11-12T22:41:19.258Z,100.00
2022-11-12T22:43:50.457Z,100.00
2022-11-12T22:46:21.068Z,100.00
2022-11-12T22:48:48.023Z,100.00
2022-11-12T22:51:20.433Z,100.00
2022-11-12T22:53:47.383Z,100.00
2022-11-12T22:56:15.875Z,100.00
2022-11-12T22:58:44.769Z,100.00
2022-11-12T23:01:24.693Z,100.00
2022-11-12T23:03:52.358Z,100.00
2022-11-12T23:06:19.175Z,100.00
2022-11-12T23:08:46.092Z,100.00
2022-11-12T23:11:15.063Z,100.00
2022-11-12T23:13:42.147Z,100.00
2022-11-12T23:16:11.695Z,100.00
2022-11-12T23:18:38.589Z,100.00
2022-11-12T23:21:10.981Z,100.00
2022-11-12T23:23:38.634Z,100.00
2022-11-12T23:26:13.758Z,100.00
2022-11-12T23:28:41.000Z,100.00
2022-11-12T23:31:16.462Z,100.00
2022-11-12T23:33:47.669Z,100.00
2022-11-12T23:36:14.339Z,100.00
2022-11-12T23:38:41.546Z,100.00
2022-11-12T23:41:10.212Z,100.00
2022-11-12T23:43:36.805Z,100.00
2022-11-12T23:46:03.526Z,100.00
2022-11-12T23:48:30.443Z,100.00
2022-11-12T23:51:10.003Z,100.00
2022-11-12T23:53:38.130Z,100.00
2022-11-12T23:56:06.291Z,100.00
2022-11-12T23:58:33.338Z,100.00
